createdAt,value
2023-03-22T00:02:04.510Z,99.30
2023-03-22T00:04:31.361Z,99.50
2023-03-22T00:06:58.074Z,99.70
2023-03-22T00:09:24.768Z,99.90
2023-03-22T00:11:51.418Z,99.90
2023-03-22T00:14:18.676Z,99.90
2023-03-22T00:16:46.346Z,99.90
2023-03-22T00:19:13.059Z,99.90
2023-03-22T00:21:39.710Z,99.90
2023-03-22T00:24:06.671Z,99.90
2023-03-22T00:26:33.304Z,99.90
2023-03-22T00:29:00.730Z,99.90
2023-03-22T00:31:27.441Z,99.90
2023-03-22T00:33:54.152Z,99.90
2023-03-22T00:36:20.842Z,99.90
2023-03-22T00:38:47.482Z,99.90
2023-03-22T00:41:17.261Z,99.90
2023-03-22T00:43:44.020Z,99.90
2023-03-22T00:46:11.285Z,99.90
2023-03-22T00:48:38.308Z,99.90
2023-03-22T00:51:05.514Z,99.90
2023-03-22T00:53:36.539Z,99.90
2023-03-22T00:56:04.128Z,99.90
2023-03-22T00:58:30.785Z,99.90
2023-03-22T01:00:57.519Z,99.90
2023-03-22T01:03:24.763Z,99.90
2023-03-22T01:05:52.186Z,99.90
2023-03-22T01:08:18.854Z,99.90
2023-03-22T01:10:46.059Z,99.90
2023-03-22T01:13:12.824Z,99.90
2023-03-22T01:15:39.963Z,99.90
2023-03-22T01:18:07.606Z,99.90
2023-03-22T01:20:34.660Z,99.90
2023-03-22T01:23:01.294Z,99.90
2023-03-22T01:25:28.005Z,99.90
2023-03-22T01:27:54.658Z,99.90
2023-03-22T01:30:21.308Z,99.90
2023-03-22T01:32:47.946Z,99.90
2023-03-22T01:35:14.593Z,99.90
2023-03-22T01:37:41.221Z,99.90
2023-03-22T01:40:08.301Z,99.90
2023-03-22T01:42:35.009Z,99.90
2023-03-22T01:45:13.917Z,99.90
2023-03-22T01:47:42.005Z,99.90
2023-03-22T01:50:08.850Z,99.90
2023-03-22T01:52:36.258Z,99.90
2023-03-22T01:55:04.621Z,99.90
2023-03-22T01:57:33.526Z,99.90
2023-03-22T02:00:00.737Z,99.90
2023-03-22T02:02:30.854Z,99.90
2023-03-22T02:04:58.010Z,99.90
2023-03-22T02:07:27.832Z,99.90
2023-03-22T02:09:54.517Z,99.90
2023-03-22T02:12:33.538Z,99.90
2023-03-22T02:15:00.220Z,99.90
2023-03-22T02:17:27.693Z,99.90
2023-03-22T02:20:11.128Z,99.90
2023-03-22T02:22:39.195Z,99.90
2023-03-22T02:25:24.720Z,99.90
2023-03-22T02:28:10.385Z,99.90
2023-03-22T02:30:56.143Z,99.90
2023-03-22T02:33:46.158Z,99.90
2023-03-22T02:36:30.939Z,99.90
2023-03-22T02:39:06.624Z,99.90
2023-03-22T02:41:48.529Z,99.90
2023-03-22T02:44:21.195Z,99.90
2023-03-22T02:47:02.003Z,99.90
2023-03-22T02:49:33.449Z,99.90
2023-03-22T02:52:03.091Z,99.90
2023-03-22T02:54:38.185Z,99.90
2023-03-22T02:57:08.469Z,99.90
2023-03-22T02:59:37.521Z,99.90
2023-03-22T03:02:04.857Z,99.90
2023-03-22T03:04:33.480Z,99.90
2023-03-22T03:07:05.160Z,99.90
2023-03-22T03:09:33.073Z,99.90
2023-03-22T03:11:59.738Z,99.90
2023-03-22T03:14:31.237Z,99.90
2023-03-22T03:17:00.973Z,99.90
2023-03-22T03:20:09.020Z,99.90
2023-03-22T03:22:51.001Z,99.90
2023-03-22T03:25:29.641Z,99.90
2023-03-22T03:28:10.088Z,99.90
2023-03-22T03:30:45.380Z,99.90
2023-03-22T03:33:16.519Z,99.90
2023-03-22T03:36:12.608Z,99.90
2023-03-22T03:38:41.823Z,99.90
2023-03-22T03:41:10.377Z,99.90
2023-03-22T03:43:37.449Z,99.90
2023-03-22T03:46:04.327Z,99.90
2023-03-22T03:48:32.818Z,99.90
2023-03-22T03:51:00.209Z,99.90
2023-03-22T03:53:27.173Z,99.90
2023-03-22T03:55:53.982Z,99.90
2023-03-22T03:58:20.779Z,99.90
2023-03-22T04:00:47.811Z,99.90
2023-03-22T04:03:14.757Z,99.90
2023-03-22T04:05:41.455Z,99.90
2023-03-22T04:08:08.614Z,99.90
2023-03-22T04:10:35.753Z,99.90
2023-03-22T04:13:02.441Z,99.90
2023-03-22T04:15:29.204Z,99.90
2023-03-22T04:17:55.837Z,99.90
2023-03-22T04:20:22.496Z,99.90
2023-03-22T04:22:49.180Z,99.90
2023-03-22T04:25:17.976Z,99.90
2023-03-22T04:27:45.447Z,99.90
2023-03-22T04:30:18.755Z,99.90
2023-03-22T04:32:47.321Z,99.90
2023-03-22T04:35:14.409Z,99.90
2023-03-22T04:37:43.167Z,99.90
2023-03-22T04:40:17.255Z,99.90
2023-03-22T04:42:44.393Z,99.90
2023-03-22T04:45:12.023Z,99.90
2023-03-22T04:47:38.737Z,99.90
2023-03-22T04:50:06.349Z,99.90
2023-03-22T04:52:33.118Z,99.90
2023-03-22T04:54:59.821Z,99.90
2023-03-22T04:57:26.745Z,99.90
2023-03-22T04:59:53.401Z,99.90
2023-03-22T05:02:20.183Z,99.90
2023-03-22T05:04:46.935Z,99.90
2023-03-22T05:07:13.644Z,99.90
2023-03-22T05:09:40.337Z,99.90
2023-03-22T05:12:07.131Z,99.90
2023-03-22T05:14:33.840Z,99.90
2023-03-22T05:17:00.519Z,99.90
2023-03-22T05:19:27.606Z,99.90
2023-03-22T05:21:58.513Z,99.90
2023-03-22T05:24:25.307Z,99.90
2023-03-22T05:26:53.868Z,99.90
2023-03-22T05:29:21.463Z,99.90
2023-03-22T05:31:48.378Z,99.90
2023-03-22T05:34:15.087Z,99.90
2023-03-22T05:36:41.817Z,99.90
2023-03-22T05:39:09.188Z,99.90
2023-03-22T05:41:36.876Z,99.90
2023-03-22T05:44:04.376Z,99.90
2023-03-22T05:46:31.177Z,99.90
2023-03-22T05:48:57.865Z,99.90
2023-03-22T05:51:25.795Z,99.90
2023-03-22T05:53:53.569Z,99.90
2023-03-22T05:56:25.809Z,99.90
2023-03-22T05:58:52.500Z,99.90
2023-03-22T06:01:21.401Z,99.90
2023-03-22T06:03:48.774Z,99.90
2023-03-22T06:06:15.851Z,99.90
2023-03-22T06:08:42.903Z,99.90
2023-03-22T06:11:09.842Z,99.90
2023-03-22T06:13:37.445Z,99.90
2023-03-22T06:16:04.680Z,99.90
2023-03-22T06:18:31.417Z,99.90
2023-03-22T06:20:58.066Z,99.90
2023-03-22T06:23:24.745Z,99.90
2023-03-22T06:25:51.389Z,99.90
2023-03-22T06:28:18.027Z,99.90
2023-03-22T06:30:44.684Z,99.90
2023-03-22T06:33:12.542Z,99.90
2023-03-22T06:35:39.265Z,99.90
2023-03-22T06:38:06.154Z,99.90
2023-03-22T06:40:32.832Z,99.90
2023-03-22T06:43:03.533Z,99.90
2023-03-22T06:45:33.451Z,99.90
2023-03-22T06:48:00.833Z,99.90
2023-03-22T06:50:28.375Z,99.90
2023-03-22T06:52:55.179Z,99.90
2023-03-22T06:55:22.265Z,99.90
2023-03-22T06:57:48.974Z,99.90
2023-03-22T07:00:16.035Z,99.90
2023-03-22T07:02:42.836Z,99.90
2023-03-22T07:05:09.523Z,99.90
2023-03-22T07:07:37.240Z,99.90
2023-03-22T07:10:24.014Z,99.90
2023-03-22T07:12:50.758Z,99.90
2023-03-22T07:15:17.652Z,99.90
2023-03-22T07:17:44.314Z,99.90
2023-03-22T07:20:11.210Z,99.90
2023-03-22T07:22:37.907Z,99.90
2023-03-22T07:25:04.757Z,99.90
2023-03-22T07:27:31.515Z,99.90
2023-03-22T07:29:58.148Z,99.90
2023-03-22T07:32:24.892Z,99.90
2023-03-22T07:34:51.618Z,99.40
2023-03-22T07:37:18.242Z,98.70
2023-03-22T07:39:45.087Z,98.10
2023-03-22T07:42:11.806Z,97.20
2023-03-22T07:44:38.515Z,97.10
2023-03-22T07:47:05.464Z,96.60
2023-03-22T07:49:32.359Z,96.70
2023-03-22T07:51:59.100Z,96.80
2023-03-22T07:54:33.397Z,96.20
2023-03-22T07:57:01.387Z,95.60
2023-03-22T07:59:28.264Z,95.70
2023-03-22T08:01:54.999Z,95.60
2023-03-22T08:04:22.531Z,95.10
2023-03-22T08:06:49.837Z,94.50
2023-03-22T08:09:16.884Z,94.30
2023-03-22T08:11:43.561Z,94.50
2023-03-22T08:14:10.235Z,94.50
2023-03-22T08:16:38.399Z,93.70
2023-03-22T08:19:05.246Z,93.00
2023-03-22T08:21:31.893Z,92.80
2023-03-22T08:23:58.584Z,92.60
2023-03-22T08:26:25.525Z,92.30
2023-03-22T08:28:52.196Z,91.60
2023-03-22T08:31:20.094Z,91.90
2023-03-22T08:33:47.159Z,91.80
2023-03-22T08:36:15.109Z,91.70
2023-03-22T08:38:42.948Z,90.00
2023-03-22T08:41:09.570Z,88.80
2023-03-22T08:43:36.196Z,89.80
2023-03-22T08:46:02.973Z,89.10
2023-03-22T08:48:30.776Z,89.70
2023-03-22T08:50:58.081Z,88.10
2023-03-22T08:53:24.780Z,86.60
2023-03-22T08:55:51.434Z,87.00
2023-03-22T08:58:20.018Z,86.20
2023-03-22T09:00:49.487Z,86.20
2023-03-22T09:03:16.792Z,86.00
2023-03-22T09:05:43.756Z,86.40
2023-03-22T09:08:18.170Z,85.10
2023-03-22T09:10:48.010Z,84.50
2023-03-22T09:13:16.790Z,85.50
2023-03-22T09:15:44.920Z,85.80
2023-03-22T09:18:12.323Z,83.00
2023-03-22T09:20:39.498Z,84.70
2023-03-22T09:23:06.581Z,83.10
2023-03-22T09:25:33.259Z,83.80
2023-03-22T09:27:59.895Z,83.60
2023-03-22T09:30:27.268Z,83.80
2023-03-22T09:32:54.062Z,83.30
2023-03-22T09:35:21.083Z,83.40
2023-03-22T09:37:49.379Z,79.60
2023-03-22T09:40:17.738Z,79.10
2023-03-22T09:42:51.561Z,79.20
2023-03-22T09:45:25.260Z,78.80
2023-03-22T09:47:54.420Z,78.10
2023-03-22T09:50:43.897Z,78.50
2023-03-22T09:53:13.754Z,78.90
2023-03-22T09:55:46.088Z,75.90
2023-03-22T09:58:25.888Z,75.10
2023-03-22T10:00:57.096Z,74.60
2023-03-22T10:03:50.320Z,73.00
2023-03-22T10:06:34.956Z,74.20
2023-03-22T10:09:04.765Z,71.30
2023-03-22T10:11:49.356Z,69.60
2023-03-22T10:14:18.995Z,70.30
2023-03-22T10:16:45.963Z,67.90
2023-03-22T10:19:19.770Z,69.20
2023-03-22T10:21:47.719Z,70.40
2023-03-22T10:24:20.396Z,68.90
2023-03-22T10:26:47.894Z,69.40
2023-03-22T10:29:23.847Z,67.40
2023-03-22T10:31:50.712Z,66.40
2023-03-22T10:34:22.281Z,65.10
2023-03-22T10:36:50.889Z,66.90
2023-03-22T10:39:37.158Z,68.90
2023-03-22T10:42:11.621Z,67.60
2023-03-22T10:44:49.145Z,68.10
2023-03-22T10:47:18.291Z,68.10
2023-03-22T10:49:53.101Z,67.20
2023-03-22T10:52:32.651Z,67.60
2023-03-22T10:55:03.076Z,66.50
2023-03-22T10:57:31.047Z,67.00
2023-03-22T10:59:57.851Z,64.60
2023-03-22T11:02:24.632Z,63.90
2023-03-22T11:04:52.791Z,64.40
2023-03-22T11:07:36.261Z,65.90
2023-03-22T11:10:09.036Z,61.90
2023-03-22T11:12:39.946Z,64.10
2023-03-22T11:15:07.355Z,62.80
2023-03-22T11:17:37.620Z,62.60
2023-03-22T11:20:09.876Z,62.20
2023-03-22T11:22:41.270Z,63.20
2023-03-22T11:25:27.833Z,61.90
2023-03-22T11:28:05.913Z,60.60
2023-03-22T11:30:33.319Z,60.00
2023-03-22T11:33:15.164Z,59.50
2023-03-22T11:35:43.944Z,64.10
2023-03-22T11:38:22.447Z,61.80
2023-03-22T11:40:53.740Z,60.00
2023-03-22T11:43:22.355Z,60.00
2023-03-22T11:45:50.172Z,59.60
2023-03-22T11:48:24.621Z,58.40
2023-03-22T11:50:55.721Z,57.50
2023-03-22T11:53:25.649Z,56.80
2023-03-22T11:55:54.205Z,57.80
2023-03-22T11:58:28.277Z,57.90
2023-03-22T12:00:56.950Z,56.30
2023-03-22T12:03:26.142Z,57.00
2023-03-22T12:05:53.018Z,55.90
2023-03-22T12:08:34.782Z,54.40
2023-03-22T12:11:06.147Z,53.50
2023-03-22T12:13:38.585Z,55.70
2023-03-22T12:16:06.342Z,55.60
2023-03-22T12:19:05.897Z,55.70
2023-03-22T12:21:33.734Z,56.40
2023-03-22T12:24:02.569Z,57.60
2023-03-22T12:26:30.350Z,57.90
2023-03-22T12:29:00.450Z,57.10
2023-03-22T12:31:38.816Z,56.80
2023-03-22T12:34:26.141Z,55.30
2023-03-22T12:36:54.742Z,57.20
2023-03-22T12:39:26.937Z,54.70
2023-03-22T12:41:55.845Z,53.00
2023-03-22T12:44:25.596Z,51.60
2023-03-22T12:47:02.857Z,54.30
2023-03-22T12:49:37.733Z,53.50
2023-03-22T12:52:26.410Z,51.50
2023-03-22T12:54:59.272Z,53.80
2023-03-22T12:57:26.152Z,51.20
2023-03-22T12:59:55.510Z,52.20
2023-03-22T13:02:31.252Z,53.30
2023-03-22T13:04:59.049Z,54.50
2023-03-22T13:07:31.786Z,52.90
2023-03-22T13:10:01.651Z,53.90
2023-03-22T13:12:30.263Z,51.70
2023-03-22T13:14:58.418Z,51.00
2023-03-22T13:17:25.488Z,49.30
2023-03-22T13:19:59.611Z,50.60
2023-03-22T13:22:26.246Z,49.60
2023-03-22T13:25:00.864Z,50.10
2023-03-22T13:27:35.571Z,49.90
2023-03-22T13:30:04.762Z,48.90
2023-03-22T13:32:33.736Z,49.60
2023-03-22T13:35:00.856Z,51.70
2023-03-22T13:37:35.749Z,51.00
2023-03-22T13:40:11.926Z,51.20
2023-03-22T13:42:39.906Z,49.50
2023-03-22T13:45:27.457Z,47.90
2023-03-22T13:48:06.430Z,48.80
2023-03-22T13:50:33.792Z,48.30
2023-03-22T13:53:07.946Z,51.30
2023-03-22T13:55:36.823Z,49.20
2023-03-22T13:58:05.868Z,49.10
2023-03-22T14:00:32.506Z,48.10
2023-03-22T14:03:05.887Z,48.70
2023-03-22T14:05:36.320Z,48.60
2023-03-22T14:08:04.323Z,50.60
2023-03-22T14:10:43.697Z,49.20
2023-03-22T14:13:26.039Z,47.80
2023-03-22T14:15:58.278Z,47.80
2023-03-22T14:18:32.349Z,49.60
2023-03-22T14:21:11.714Z,47.70
